sensor_id;sensor_type;location;lat;lon;timestamp;pressure;altitude;pressure_sealevel;temperature;humidity
20037;BME280;10179;42.640;23.312;2023-05-29T00:00:31;93143.13;;;15.38;56.53
20037;BME280;10179;42.640;23.312;2023-05-29T00:02:57;93473.72;;;17.49;56.73
20037;BME280;10179;42.640;23.312;2023-05-29T00:05:23;93517.47;;;17.67;56.71
20037;BME280;10179;42.640;23.312;2023-05-29T00:07:49;93450.69;;;17.29;56.82
20037;BME280;10179;42.640;23.312;2023-05-29T00:10:15;93508.19;;;17.70;56.62
20037;BME280;10179;42.640;23.312;2023-05-29T00:12:41;93307.69;;;16.37;56.94
20037;BME280;10179;42.640;23.312;2023-05-29T00:15:07;93510.31;;;17.68;57.01
20037;BME280;10179;42.640;23.312;2023-05-29T00:17:33;93511.09;;;17.68;56.81
20037;BME280;10179;42.640;23.312;2023-05-29T00:19:59;93498.38;;;17.55;56.91
20037;BME280;10179;42.640;23.312;2023-05-29T00:22:26;93462.94;;;17.20;57.14
20037;BME280;10179;42.640;23.312;2023-05-29T00:24:53;93527.81;;;17.69;56.84
20037;BME280;10179;42.640;23.312;2023-05-29T00:27:18;93497.06;;;17.62;57.15
20037;BME280;10179;42.640;23.312;2023-05-29T00:29:45;93517.97;;;17.79;57.02
20037;BME280;10179;42.640;23.312;2023-05-29T00:32:10;93517.97;;;17.79;56.84
20037;BME280;10179;42.640;23.312;2023-05-29T00:34:36;93443.00;;;17.28;56.86
20037;BME280;10179;42.640;23.312;2023-05-29T00:37:01;93519.59;;;17.80;57.02
20037;BME280;10179;42.640;23.312;2023-05-29T00:39:27;93508.41;;;17.83;57.15
20037;BME280;10179;42.640;23.312;2023-05-29T00:41:52;93422.56;;;17.28;57.04
20037;BME280;10179;42.640;23.312;2023-05-29T00:44:19;93520.09;;;17.87;57.10
20037;BME280;10179;42.640;23.312;2023-05-29T00:46:49;93486.94;;;17.70;57.17
20037;BME280;10179;42.640;23.312;2023-05-29T00:49:16;93516.34;;;17.88;56.86
20037;BME280;10179;42.640;23.312;2023-05-29T00:51:42;93511.31;;;17.87;56.92
20037;BME280;10179;42.640;23.312;2023-05-29T00:54:10;93490.63;;;17.74;57.04
20037;BME280;10179;42.640;23.312;2023-05-29T00:56:41;93502.56;;;17.81;56.91
20037;BME280;10179;42.640;23.312;2023-05-29T00:59:11;93504.69;;;17.79;56.96
20037;BME280;10179;42.640;23.312;2023-05-29T01:01:37;93507.91;;;17.76;57.09
20037;BME280;10179;42.640;23.312;2023-05-29T01:04:04;93468.38;;;17.54;57.04
20037;BME280;10179;42.640;23.312;2023-05-29T01:06:32;93469.47;;;17.53;57.14
20037;BME280;10179;42.640;23.312;2023-05-29T01:08:57;93350.81;;;16.84;57.21
20037;BME280;10179;42.640;23.312;2023-05-29T01:11:52;93489.03;;;17.78;57.18
20037;BME280;10179;42.640;23.312;2023-05-29T01:17:21;93491.44;;;17.69;57.24
20037;BME280;10179;42.640;23.312;2023-05-29T01:20:11;93487.72;;;17.70;57.31
20037;BME280;10179;42.640;23.312;2023-05-29T01:23:07;93494.09;;;17.69;57.25
20037;BME280;10179;42.640;23.312;2023-05-29T01:28:42;93496.25;;;17.62;57.51
20037;BME280;10179;42.640;23.312;2023-05-29T01:31:09;93511.38;;;17.61;57.61
20037;BME280;10179;42.640;23.312;2023-05-29T01:33:39;93453.91;;;17.21;57.62
20037;BME280;10179;42.640;23.312;2023-05-29T01:36:07;93421.91;;;16.92;57.71
20037;BME280;10179;42.640;23.312;2023-05-29T01:38:33;93506.16;;;17.41;57.63
20037;BME280;10179;42.640;23.312;2023-05-29T01:40:58;93508.50;;;17.48;57.84
20037;BME280;10179;42.640;23.312;2023-05-29T01:43:24;93506.91;;;17.52;58.08
20037;BME280;10179;42.640;23.312;2023-05-29T01:45:50;93477.75;;;17.41;58.02
20037;BME280;10179;42.640;23.312;2023-05-29T01:48:16;93497.31;;;17.61;57.88
20037;BME280;10179;42.640;23.312;2023-05-29T01:50:42;93406.53;;;16.89;57.97
20037;BME280;10179;42.640;23.312;2023-05-29T01:53:09;93424.72;;;17.16;57.99
20037;BME280;10179;42.640;23.312;2023-05-29T01:55:35;93369.13;;;16.70;58.08
20037;BME280;10179;42.640;23.312;2023-05-29T01:58:00;93501.53;;;17.67;57.98
20037;BME280;10179;42.640;23.312;2023-05-29T02:00:26;93482.75;;;17.53;58.12
20037;BME280;10179;42.640;23.312;2023-05-29T02:02:52;93483.28;;;17.55;58.05
20037;BME280;10179;42.640;23.312;2023-05-29T02:05:17;93495.16;;;17.68;58.37
20037;BME280;10179;42.640;23.312;2023-05-29T02:07:43;93498.84;;;17.72;58.02
20037;BME280;10179;42.640;23.312;2023-05-29T02:10:08;93499.38;;;17.74;58.10
20037;BME280;10179;42.640;23.312;2023-05-29T02:12:34;93493.81;;;17.76;58.23
20037;BME280;10179;42.640;23.312;2023-05-29T02:14:59;93493.81;;;17.81;58.29
20037;BME280;10179;42.640;23.312;2023-05-29T02:17:25;93296.00;;;16.54;58.26
20037;BME280;10179;42.640;23.312;2023-05-29T02:19:50;93474.94;;;17.72;58.11
20037;BME280;10179;42.640;23.312;2023-05-29T02:22:17;93490.84;;;17.87;58.31
20037;BME280;10179;42.640;23.312;2023-05-29T02:24:44;93460.38;;;17.70;58.27
20037;BME280;10179;42.640;23.312;2023-05-29T02:27:09;93456.88;;;17.74;58.20
20037;BME280;10179;42.640;23.312;2023-05-29T02:29:35;93037.34;;;15.08;57.87
20037;BME280;10179;42.640;23.312;2023-05-29T02:32:00;93495.59;;;17.96;58.00
20037;BME280;10179;42.640;23.312;2023-05-29T02:34:25;93494.00;;;17.95;57.77
20037;BME280;10179;42.640;23.312;2023-05-29T02:36:52;93494.56;;;17.92;57.91
20037;BME280;10179;42.640;23.312;2023-05-29T02:39:18;93153.69;;;15.48;57.86
20037;BME280;10179;42.640;23.312;2023-05-29T02:41:43;93500.41;;;17.88;57.78
20037;BME280;10179;42.640;23.312;2023-05-29T02:44:09;93486.09;;;17.79;57.98
20037;BME280;10179;42.640;23.312;2023-05-29T02:46:34;93422.78;;;17.42;57.80
20037;BME280;10179;42.640;23.312;2023-05-29T02:49:00;93487.19;;;17.73;57.73
20037;BME280;10179;42.640;23.312;2023-05-29T02:51:25;93365.13;;;16.93;57.75
20037;BME280;10179;42.640;23.312;2023-05-29T02:53:50;93444.78;;;17.53;57.93
20037;BME280;10179;42.640;23.312;2023-05-29T02:56:16;93497.25;;;17.81;58.06
20037;BME280;10179;42.640;23.312;2023-05-29T02:58:41;93460.41;;;17.59;58.03
20037;BME280;10179;42.640;23.312;2023-05-29T03:01:07;93458.56;;;17.55;57.94
20037;BME280;10179;42.640;23.312;2023-05-29T03:03:33;93480.28;;;17.67;58.12
20037;BME280;10179;42.640;23.312;2023-05-29T03:05:58;93443.22;;;17.41;58.04
20037;BME280;10179;42.640;23.312;2023-05-29T03:08:24;93490.88;;;17.72;58.32
20037;BME280;10179;42.640;23.312;2023-05-29T03:10:51;93462.03;;;17.50;58.22
20037;BME280;10179;42.640;23.312;2023-05-29T03:13:17;93485.34;;;17.63;57.96
20037;BME280;10179;42.640;23.312;2023-05-29T03:15:44;93508.94;;;17.75;58.18
20037;BME280;10179;42.640;23.312;2023-05-29T03:18:10;93507.63;;;17.73;58.27
20037;BME280;10179;42.640;23.312;2023-05-29T03:20:36;93510.56;;;17.71;58.32
20037;BME280;10179;42.640;23.312;2023-05-29T03:23:01;93431.59;;;17.27;58.46
20037;BME280;10179;42.640;23.312;2023-05-29T03:25:27;93500.97;;;17.75;58.76
20037;BME280;10179;42.640;23.312;2023-05-29T03:27:52;93503.13;;;17.78;58.66
20037;BME280;10179;42.640;23.312;2023-05-29T03:30:18;93504.16;;;17.82;58.92
20037;BME280;10179;42.640;23.312;2023-05-29T03:32:45;93377.56;;;17.03;59.14
20037;BME280;10179;42.640;23.312;2023-05-29T03:35:11;93511.00;;;17.99;59.31
20037;BME280;10179;42.640;23.312;2023-05-29T03:37:36;93478.63;;;17.86;59.26
20037;BME280;10179;42.640;23.312;2023-05-29T03:40:02;93467.25;;;17.81;59.36
20037;BME280;10179;42.640;23.312;2023-05-29T03:42:28;93519.34;;;18.26;59.06
20037;BME280;10179;42.640;23.312;2023-05-29T03:44:56;93525.16;;;18.33;58.86
20037;BME280;10179;42.640;23.312;2023-05-29T03:47:22;93538.94;;;18.41;59.01
20037;BME280;10179;42.640;23.312;2023-05-29T03:49:47;93517.66;;;18.41;58.68
20037;BME280;10179;42.640;23.312;2023-05-29T03:52:12;93482.88;;;18.32;58.36
20037;BME280;10179;42.640;23.312;2023-05-29T03:54:38;93395.72;;;17.89;58.18
20037;BME280;10179;42.640;23.312;2023-05-29T03:57:03;93536.53;;;18.83;58.10
20037;BME280;10179;42.640;23.312;2023-05-29T03:59:29;93533.25;;;18.92;57.92
20037;BME280;10179;42.640;23.312;2023-05-29T04:01:54;93540.66;;;19.00;57.55
20037;BME280;10179;42.640;23.312;2023-05-29T04:04:20;93549.63;;;19.09;57.29
20037;BME280;10179;42.640;23.312;2023-05-29T04:06:45;93477.00;;;18.74;56.96
20037;BME280;10179;42.640;23.312;2023-05-29T04:09:10;93535.75;;;19.12;56.85
20037;BME280;10179;42.640;23.312;2023-05-29T04:11:36;93564.13;;;19.27;56.78
20037;BME280;10179;42.640;23.312;2023-05-29T04:14:02;93543.53;;;19.33;56.66
20037;BME280;10179;42.640;23.312;2023-05-29T04:16:28;93565.38;;;19.35;56.50
20037;BME280;10179;42.640;23.312;2023-05-29T04:18:54;93517.56;;;19.19;56.26
20037;BME280;10179;42.640;23.312;2023-05-29T04:21:20;93525.44;;;19.35;56.23
20037;BME280;10179;42.640;23.312;2023-05-29T04:23:45;93546.28;;;19.51;56.03
20037;BME280;10179;42.640;23.312;2023-05-29T04:26:11;93508.94;;;19.33;55.36
20037;BME280;10179;42.640;23.312;2023-05-29T04:28:37;93542.78;;;19.56;55.40
20037;BME280;10179;42.640;23.312;2023-05-29T04:31:03;93528.72;;;19.50;55.42
20037;BME280;10179;42.640;23.312;2023-05-29T04:33:28;93548.31;;;19.65;55.42
20037;BME280;10179;42.640;23.312;2023-05-29T04:35:54;93499.03;;;19.38;55.12
20037;BME280;10179;42.640;23.312;2023-05-29T04:38:20;93537.94;;;19.63;55.09
20037;BME280;10179;42.640;23.312;2023-05-29T04:40:50;93505.03;;;19.49;54.96
20037;BME280;10179;42.640;23.312;2023-05-29T04:43:16;93551.59;;;19.81;54.85
20037;BME280;10179;42.640;23.312;2023-05-29T04:45:41;93555.84;;;19.82;54.68
20037;BME280;10179;42.640;23.312;2023-05-29T04:48:07;93559.09;;;19.78;54.79
20037;BME280;10179;42.640;23.312;2023-05-29T04:50:33;93478.16;;;19.21;55.39
20037;BME280;10179;42.640;23.312;2023-05-29T04:53:00;93560.22;;;19.72;55.75
20037;BME280;10179;42.640;23.312;2023-05-29T04:55:25;93550.59;;;19.76;55.69
20037;BME280;10179;42.640;23.312;2023-05-29T04:57:51;93567.97;;;19.93;55.33
20037;BME280;10179;42.640;23.312;2023-05-29T05:00:17;93555.63;;;20.02;55.40
20037;BME280;10179;42.640;23.312;2023-05-29T05:02:44;93564.06;;;20.09;55.12
20037;BME280;10179;42.640;23.312;2023-05-29T05:05:10;93579.94;;;20.19;54.96
20037;BME280;10179;42.640;23.312;2023-05-29T05:07:36;93574.97;;;20.32;54.50
20037;BME280;10179;42.640;23.312;2023-05-29T05:10:03;93579.59;;;20.45;53.78
20037;BME280;10179;42.640;23.312;2023-05-29T05:12:28;93585.41;;;20.52;54.09
20037;BME280;10179;42.640;23.312;2023-05-29T05:14:54;93590.69;;;20.57;53.98
20037;BME280;10179;42.640;23.312;2023-05-29T05:17:19;93555.16;;;20.38;54.16
20037;BME280;10179;42.640;23.312;2023-05-29T05:19:45;93595.38;;;20.65;53.75
20037;BME280;10179;42.640;23.312;2023-05-29T05:22:11;93596.31;;;20.75;53.03
20037;BME280;10179;42.640;23.312;2023-05-29T05:24:36;93576.66;;;20.84;52.79
20037;BME280;10179;42.640;23.312;2023-05-29T05:27:01;93524.41;;;20.64;52.95
20037;BME280;10179;42.640;23.312;2023-05-29T05:29:27;93573.69;;;21.37;52.20
20037;BME280;10179;42.640;23.312;2023-05-29T05:31:52;93591.59;;;21.70;51.39
20037;BME280;10179;42.640;23.312;2023-05-29T05:34:18;93587.06;;;21.84;50.10
20037;BME280;10179;42.640;23.312;2023-05-29T05:36:43;93556.53;;;21.71;49.82
20037;BME280;10179;42.640;23.312;2023-05-29T05:39:08;93595.38;;;21.96;49.50
20037;BME280;10179;42.640;23.312;2023-05-29T05:41:34;92897.50;;;17.11;48.53
20037;BME280;10179;42.640;23.312;2023-05-29T05:43:59;93585.75;;;21.95;49.04
20037;BME280;10179;42.640;23.312;2023-05-29T05:46:25;93593.59;;;21.91;48.47
20037;BME280;10179;42.640;23.312;2023-05-29T05:48:50;93563.25;;;21.68;48.58
20037;BME280;10179;42.640;23.312;2023-05-29T05:51:17;93562.78;;;21.66;48.62
20037;BME280;10179;42.640;23.312;2023-05-29T05:53:43;93598.81;;;21.83;48.28
20037;BME280;10179;42.640;23.312;2023-05-29T05:56:08;93483.38;;;21.07;48.33
20037;BME280;10179;42.640;23.312;2023-05-29T05:58:34;93138.06;;;18.70;48.38
20037;BME280;10179;42.640;23.312;2023-05-29T06:01:00;93600.88;;;21.58;48.79
20037;BME280;10179;42.640;23.312;2023-05-29T06:03:26;93444.41;;;20.59;49.23
20037;BME280;10179;42.640;23.312;2023-05-29T06:05:52;93601.88;;;21.62;49.81
20037;BME280;10179;42.640;23.312;2023-05-29T06:08:19;93604.06;;;21.74;50.28
20037;BME280;10179;42.640;23.312;2023-05-29T06:10:44;93598.94;;;21.91;49.81
20037;BME280;10179;42.640;23.312;2023-05-29T06:13:10;93542.56;;;21.60;49.14
20037;BME280;10179;42.640;23.312;2023-05-29T06:15:35;93555.56;;;21.81;48.25
20037;BME280;10179;42.640;23.312;2023-05-29T06:18:01;93563.28;;;21.96;48.28
20037;BME280;10179;42.640;23.312;2023-05-29T06:20:26;93556.34;;;21.95;48.19
20037;BME280;10179;42.640;23.312;2023-05-29T06:22:51;93597.56;;;22.35;47.76
20037;BME280;10179;42.640;23.312;2023-05-29T06:25:17;93606.66;;;22.48;47.29
20037;BME280;10179;42.640;23.312;2023-05-29T06:27:45;93614.00;;;22.56;47.20
20037;BME280;10179;42.640;23.312;2023-05-29T06:30:12;93651.66;;;22.60;46.85
20037;BME280;10179;42.640;23.312;2023-05-29T06:32:38;93568.03;;;22.27;46.95
20037;BME280;10179;42.640;23.312;2023-05-29T06:35:03;93620.13;;;22.57;47.04
20037;BME280;10179;42.640;23.312;2023-05-29T06:37:29;93483.56;;;21.71;47.06
20037;BME280;10179;42.640;23.312;2023-05-29T06:39:54;93610.84;;;22.41;47.40
20037;BME280;10179;42.640;23.312;2023-05-29T06:42:20;93609.88;;;22.36;47.35
20037;BME280;10179;42.640;23.312;2023-05-29T06:44:45;93613.63;;;22.35;47.26
20037;BME280;10179;42.640;23.312;2023-05-29T06:47:10;93608.88;;;22.32;47.12
20037;BME280;10179;42.640;23.312;2023-05-29T06:49:36;93576.97;;;22.08;47.08
20037;BME280;10179;42.640;23.312;2023-05-29T06:52:01;93613.53;;;22.27;47.41
20037;BME280;10179;42.640;23.312;2023-05-29T06:54:27;93611.44;;;22.24;47.54
20037;BME280;10179;42.640;23.312;2023-05-29T06:56:52;93564.16;;;21.91;48.26
20037;BME280;10179;42.640;23.312;2023-05-29T06:59:19;93605.78;;;22.11;47.87
20037;BME280;10179;42.640;23.312;2023-05-29T07:01:45;93620.19;;;22.15;47.76
20037;BME280;10179;42.640;23.312;2023-05-29T07:04:11;93570.19;;;21.97;47.59
20037;BME280;10179;42.640;23.312;2023-05-29T07:06:36;93587.66;;;22.08;46.99
20037;BME280;10179;42.640;23.312;2023-05-29T07:09:02;93617.91;;;22.23;46.51
20037;BME280;10179;42.640;23.312;2023-05-29T07:11:27;93622.94;;;22.24;47.41
20037;BME280;10179;42.640;23.312;2023-05-29T07:13:56;93488.59;;;21.44;47.29
20037;BME280;10179;42.640;23.312;2023-05-29T07:16:21;93593.63;;;22.19;46.91
20037;BME280;10179;42.640;23.312;2023-05-29T07:18:46;93615.59;;;22.57;46.83
20037;BME280;10179;42.640;23.312;2023-05-29T07:21:12;93618.66;;;22.65;46.70
20037;BME280;10179;42.640;23.312;2023-05-29T07:23:37;93616.97;;;22.69;47.19
20037;BME280;10179;42.640;23.312;2023-05-29T07:26:03;93620.09;;;22.71;46.66
20037;BME280;10179;42.640;23.312;2023-05-29T07:28:28;93611.09;;;22.67;46.23
20037;BME280;10179;42.640;23.312;2023-05-29T07:30:53;93606.84;;;22.66;46.50
20037;BME280;10179;42.640;23.312;2023-05-29T07:33:19;93596.72;;;22.62;47.22
20037;BME280;10179;42.640;23.312;2023-05-29T07:35:44;93596.38;;;22.78;47.27
20037;BME280;10179;42.640;23.312;2023-05-29T07:38:09;93583.41;;;22.85;46.81
20037;BME280;10179;42.640;23.312;2023-05-29T07:40:35;93497.94;;;22.38;46.66
20037;BME280;10179;42.640;23.312;2023-05-29T07:43:00;93608.66;;;23.29;46.19
20037;BME280;10179;42.640;23.312;2023-05-29T07:45:27;93565.41;;;22.99;45.93
20037;BME280;10179;42.640;23.312;2023-05-29T07:47:52;93422.78;;;22.12;45.31
20037;BME280;10179;42.640;23.312;2023-05-29T07:50:17;93612.28;;;23.33;45.48
20037;BME280;10179;42.640;23.312;2023-05-29T07:52:43;93561.75;;;22.95;45.29
20037;BME280;10179;42.640;23.312;2023-05-29T07:55:09;93518.63;;;22.60;45.26
20037;BME280;10179;42.640;23.312;2023-05-29T07:57:35;93583.53;;;23.02;45.52
20037;BME280;10179;42.640;23.312;2023-05-29T08:00:00;93592.16;;;23.13;45.40
20037;BME280;10179;42.640;23.312;2023-05-29T08:02:31;93578.94;;;23.17;45.25
20037;BME280;10179;42.640;23.312;2023-05-29T08:04:56;93611.75;;;23.45;44.96
20037;BME280;10179;42.640;23.312;2023-05-29T08:07:21;93612.47;;;23.59;45.03
20037;BME280;10179;42.640;23.312;2023-05-29T08:09:47;93486.91;;;22.99;44.27
20037;BME280;10179;42.640;23.312;2023-05-29T08:12:12;93617.78;;;23.73;43.52
20037;BME280;10179;42.640;23.312;2023-05-29T08:14:37;93596.31;;;23.50;43.65
20037;BME280;10179;42.640;23.312;2023-05-29T08:17:03;93618.28;;;23.52;44.08
20037;BME280;10179;42.640;23.312;2023-05-29T08:19:28;93617.47;;;23.52;44.06
20037;BME280;10179;42.640;23.312;2023-05-29T08:21:54;93614.44;;;23.67;44.42
20037;BME280;10179;42.640;23.312;2023-05-29T08:24:19;93583.75;;;23.82;43.70
20037;BME280;10179;42.640;23.312;2023-05-29T08:26:45;93618.56;;;24.04;43.91
20037;BME280;10179;42.640;23.312;2023-05-29T08:29:10;93612.03;;;23.88;43.06
20037;BME280;10179;42.640;23.312;2023-05-29T08:31:36;93625.75;;;23.64;43.65
20037;BME280;10179;42.640;23.312;2023-05-29T08:34:01;93573.75;;;23.20;44.00
20037;BME280;10179;42.640;23.312;2023-05-29T08:36:27;93638.25;;;23.69;43.43
20037;BME280;10179;42.640;23.312;2023-05-29T08:38:53;93516.50;;;22.94;43.55
20037;BME280;10179;42.640;23.312;2023-05-29T08:41:32;93631.31;;;23.68;42.83
20037;BME280;10179;42.640;23.312;2023-05-29T08:44:03;93592.97;;;23.67;42.85
20037;BME280;10179;42.640;23.312;2023-05-29T08:46:31;93544.06;;;23.39;42.40
20037;BME280;10179;42.640;23.312;2023-05-29T08:48:58;93615.06;;;24.04;42.05
20037;BME280;10179;42.640;23.312;2023-05-29T08:51:27;93609.81;;;24.30;41.96
20037;BME280;10179;42.640;23.312;2023-05-29T08:53:56;93586.84;;;24.64;41.71
20037;BME280;10179;42.640;23.312;2023-05-29T08:56:22;93604.94;;;25.41;40.57
20037;BME280;10179;42.640;23.312;2023-05-29T08:58:48;93603.25;;;25.92;39.83
20037;BME280;10179;42.640;23.312;2023-05-29T09:01:14;93599.94;;;26.25;39.38
20037;BME280;10179;42.640;23.312;2023-05-29T09:03:40;93602.09;;;26.40;38.01
20037;BME280;10179;42.640;23.312;2023-05-29T09:06:07;93593.66;;;26.42;38.15
20037;BME280;10179;42.640;23.312;2023-05-29T09:08:34;93599.66;;;26.18;37.44
20037;BME280;10179;42.640;23.312;2023-05-29T09:10:59;93603.25;;;25.92;38.02
20037;BME280;10179;42.640;23.312;2023-05-29T09:13:25;93592.97;;;25.68;38.21
20037;BME280;10179;42.640;23.312;2023-05-29T09:15:57;93597.91;;;25.58;38.42
20037;BME280;10179;42.640;23.312;2023-05-29T09:18:23;93593.50;;;25.44;38.74
20037;BME280;10179;42.640;23.312;2023-05-29T09:20:48;93570.31;;;25.14;39.03
20037;BME280;10179;42.640;23.312;2023-05-29T09:23:13;93581.84;;;25.14;39.42
20037;BME280;10179;42.640;23.312;2023-05-29T09:25:40;93582.63;;;25.15;39.81
20037;BME280;10179;42.640;23.312;2023-05-29T09:28:08;93583.56;;;25.19;40.07
20037;BME280;10179;42.640;23.312;2023-05-29T09:30:44;93550.66;;;25.31;39.65
20037;BME280;10179;42.640;23.312;2023-05-29T09:33:11;93571.94;;;25.79;39.58
20037;BME280;10179;42.640;23.312;2023-05-29T09:35:37;93569.00;;;26.02;38.97
20037;BME280;10179;42.640;23.312;2023-05-29T09:38:04;93572.50;;;26.02;38.13
20037;BME280;10179;42.640;23.312;2023-05-29T09:40:33;93434.78;;;25.15;37.73
20037;BME280;10179;42.640;23.312;2023-05-29T09:43:09;93562.50;;;26.03;38.25
20037;BME280;10179;42.640;23.312;2023-05-29T09:45:41;93548.75;;;25.96;38.55
20037;BME280;10179;42.640;23.312;2023-05-29T09:48:08;93555.09;;;26.29;37.97
20037;BME280;10179;42.640;23.312;2023-05-29T09:50:37;93544.84;;;25.84;37.62
20037;BME280;10179;42.640;23.312;2023-05-29T09:53:02;93554.81;;;25.75;37.72
20037;BME280;10179;42.640;23.312;2023-05-29T09:55:29;93473.66;;;25.09;37.93
20037;BME280;10179;42.640;23.312;2023-05-29T09:57:57;93557.78;;;25.35;37.55
20037;BME280;10179;42.640;23.312;2023-05-29T10:00:22;93549.91;;;25.13;37.39
20037;BME280;10179;42.640;23.312;2023-05-29T10:02:48;93469.94;;;24.40;38.19
20037;BME280;10179;42.640;23.312;2023-05-29T10:05:14;93561.75;;;24.77;38.37
20037;BME280;10179;42.640;23.312;2023-05-29T10:07:45;93556.06;;;24.61;38.74
20037;BME280;10179;42.640;23.312;2023-05-29T10:10:13;93552.41;;;24.48;38.92
20037;BME280;10179;42.640;23.312;2023-05-29T10:12:42;93556.91;;;24.39;39.30
20037;BME280;10179;42.640;23.312;2023-05-29T10:15:14;93551.09;;;24.37;38.89
20037;BME280;10179;42.640;23.312;2023-05-29T10:17:47;93556.47;;;24.37;38.93
20037;BME280;10179;42.640;23.312;2023-05-29T10:20:15;93421.44;;;23.53;38.77
20037;BME280;10179;42.640;23.312;2023-05-29T10:22:45;93553.00;;;24.45;39.12
20037;BME280;10179;42.640;23.312;2023-05-29T10:25:13;93496.16;;;24.43;38.66
20037;BME280;10179;42.640;23.312;2023-05-29T10:27:38;93548.16;;;25.26;37.59
20037;BME280;10179;42.640;23.312;2023-05-29T10:30:12;93557.16;;;25.38;37.15
20037;BME280;10179;42.640;23.312;2023-05-29T10:35:24;93471.00;;;24.91;37.34
20037;BME280;10179;42.640;23.312;2023-05-29T10:40:26;93521.59;;;25.71;37.43
20037;BME280;10179;42.640;23.312;2023-05-29T10:42:52;93531.03;;;25.94;36.77
20037;BME280;10179;42.640;23.312;2023-05-29T10:50:36;93385.13;;;25.21;36.43
20037;BME280;10179;42.640;23.312;2023-05-29T10:53:02;93203.28;;;23.93;36.29
20037;BME280;10179;42.640;23.312;2023-05-29T10:55:34;93484.63;;;25.59;36.56
20037;BME280;10179;42.640;23.312;2023-05-29T10:58:07;93499.25;;;25.32;36.75
20037;BME280;10179;42.640;23.312;2023-05-29T11:00:34;93534.38;;;25.27;38.00
20037;BME280;10179;42.640;23.312;2023-05-29T11:03:07;93417.50;;;24.25;38.86
20037;BME280;10179;42.640;23.312;2023-05-29T11:05:33;93530.94;;;24.66;40.85
20037;BME280;10179;42.640;23.312;2023-05-29T11:08:00;93530.84;;;24.22;42.82
20037;BME280;10179;42.640;23.312;2023-05-29T11:13:31;93501.44;;;22.84;47.74
20037;BME280;10179;42.640;23.312;2023-05-29T11:16:19;93524.38;;;22.54;50.21
20037;BME280;10179;42.640;23.312;2023-05-29T11:18:47;93514.16;;;22.20;52.56
20037;BME280;10179;42.640;23.312;2023-05-29T11:24:00;93474.53;;;21.94;56.07
20037;BME280;10179;42.640;23.312;2023-05-29T11:26:31;93491.03;;;22.10;57.20
20037;BME280;10179;42.640;23.312;2023-05-29T11:28:59;93410.47;;;21.75;58.03
20037;BME280;10179;42.640;23.312;2023-05-29T11:31:26;93494.47;;;22.38;58.03
20037;BME280;10179;42.640;23.312;2023-05-29T11:33:54;93400.34;;;21.86;58.22
20037;BME280;10179;42.640;23.312;2023-05-29T11:36:25;93490.84;;;22.56;57.33
20037;BME280;10179;42.640;23.312;2023-05-29T11:38:51;93421.22;;;22.11;56.29
20037;BME280;10179;42.640;23.312;2023-05-29T11:41:17;93504.69;;;22.72;55.55
20037;BME280;10179;42.640;23.312;2023-05-29T11:43:43;93442.66;;;22.56;54.09
20037;BME280;10179;42.640;23.312;2023-05-29T11:46:18;93422.22;;;22.60;52.33
20037;BME280;10179;42.640;23.312;2023-05-29T11:48:47;93462.22;;;22.88;52.07
20037;BME280;10179;42.640;23.312;2023-05-29T11:51:13;93453.59;;;22.91;50.64
20037;BME280;10179;42.640;23.312;2023-05-29T11:53:43;93417.59;;;22.75;50.04
20037;BME280;10179;42.640;23.312;2023-05-29T11:56:09;93488.00;;;23.20;48.98
20037;BME280;10179;42.640;23.312;2023-05-29T11:58:39;93446.78;;;23.07;48.94
20037;BME280;10179;42.640;23.312;2023-05-29T12:01:05;93489.16;;;23.28;47.93
20037;BME280;10179;42.640;23.312;2023-05-29T12:03:37;93481.72;;;23.25;47.03
20037;BME280;10179;42.640;23.312;2023-05-29T12:06:03;93486.66;;;23.40;45.60
20037;BME280;10179;42.640;23.312;2023-05-29T12:08:29;93508.88;;;22.87;48.59
20037;BME280;10179;42.640;23.312;2023-05-29T12:10:54;93210.84;;;20.48;50.10
20037;BME280;10179;42.640;23.312;2023-05-29T12:13:20;93501.06;;;22.04;52.08
20037;BME280;10179;42.640;23.312;2023-05-29T12:15:47;93501.50;;;21.56;53.28
20037;BME280;10179;42.640;23.312;2023-05-29T12:18:14;93506.53;;;21.11;53.56
20037;BME280;10179;42.640;23.312;2023-05-29T12:20:40;93474.16;;;20.66;55.02
20037;BME280;10179;42.640;23.312;2023-05-29T12:23:05;93461.78;;;20.38;55.92
20037;BME280;10179;42.640;23.312;2023-05-29T12:25:31;93492.06;;;20.47;57.19
20037;BME280;10179;42.640;23.312;2023-05-29T12:27:59;93462.06;;;20.17;57.90
20037;BME280;10179;42.640;23.312;2023-05-29T12:30:24;93524.16;;;20.23;58.85
20037;BME280;10179;42.640;23.312;2023-05-29T12:32:52;93501.44;;;20.25;59.99
20037;BME280;10179;42.640;23.312;2023-05-29T12:35:25;93450.97;;;19.91;60.25
20037;BME280;10179;42.640;23.312;2023-05-29T12:38:00;93505.56;;;20.37;60.81
20037;BME280;10179;42.640;23.312;2023-05-29T12:40:28;93512.41;;;20.43;61.45
20037;BME280;10179;42.640;23.312;2023-05-29T12:42:58;93514.44;;;20.51;61.42
20037;BME280;10179;42.640;23.312;2023-05-29T12:45:26;93474.03;;;20.39;61.74
20037;BME280;10179;42.640;23.312;2023-05-29T12:47:57;93484.00;;;20.52;62.06
20037;BME280;10179;42.640;23.312;2023-05-29T12:55:20;93477.88;;;20.33;57.96
20037;BME280;10179;42.640;23.312;2023-05-29T12:57:46;93480.31;;;20.29;56.95
20037;BME280;10179;42.640;23.312;2023-05-29T13:00:12;93460.41;;;19.84;57.64
20037;BME280;10179;42.640;23.312;2023-05-29T13:02:38;93511.94;;;20.36;58.63
20037;BME280;10179;42.640;23.312;2023-05-29T13:05:04;93473.91;;;20.11;58.41
20037;BME280;10179;42.640;23.312;2023-05-29T13:07:30;93499.84;;;20.24;58.15
20037;BME280;10179;42.640;23.312;2023-05-29T13:09:56;93512.25;;;20.34;57.58
20037;BME280;10179;42.640;23.312;2023-05-29T13:12:21;93440.69;;;19.85;57.39
20037;BME280;10179;42.640;23.312;2023-05-29T13:14:47;93493.38;;;20.31;57.70